Weather at Cedar City Regional Airport

Public forecast

Using degrees Fahrenheit for public forecast. Weather courtesy of forecast.io.

Current aviation weather report (METAR) for Cedar City Regional Airport

2024/05/29 17:53 (retrieved 13 minutes ago)

KCDC 291753Z AUTO 20013G21KT 170V250 10SM CLR 26/M07 A3009 RMK AO2 SLP112 T02611067 10261 20117 58005

Aviation forecast (TAF) for Cedar City Regional Airport

2024/05/29 18:22 (retrieved 0 seconds ago)

TAF KCDC 291720Z 2918/3018 22015G25KT P6SM SKC FM292300 27012G22KT P6SM FEW100 FM300200 21010KT P6SM FEW250 FM300600 35011KT P6SM SCT250